createdAt,value
2018-11-14T00:00:28.592Z,10.30
2018-11-14T00:02:57.771Z,14.03
2018-11-14T00:05:26.214Z,15.13
2018-11-14T00:07:54.731Z,12.53
2018-11-14T00:10:23.139Z,12.80
2018-11-14T00:12:51.569Z,12.37
2018-11-14T00:15:22.285Z,16.40
2018-11-14T00:17:51.386Z,14.57
2018-11-14T00:20:19.840Z,16.60
2018-11-14T00:22:49.314Z,10.73
2018-11-14T00:25:17.857Z,12.33
2018-11-14T00:27:46.338Z,13.23
2018-11-14T00:30:19.314Z,17.40
2018-11-14T00:32:47.400Z,13.47
2018-11-14T00:35:15.901Z,12.83
2018-11-14T00:37:44.924Z,19.30
2018-11-14T00:40:14.572Z,14.27
2018-11-14T00:42:43.655Z,18.20
2018-11-14T00:45:14.133Z,15.27
2018-11-14T00:47:43.634Z,14.77
2018-11-14T00:50:13.389Z,18.00
2018-11-14T00:52:42.272Z,14.73
2018-11-14T00:55:13.585Z,15.03
2018-11-14T00:57:43.054Z,22.70
2018-11-14T01:00:14.349Z,17.00
2018-11-14T01:02:43.239Z,15.73
2018-11-14T01:05:12.762Z,18.73
2018-11-14T01:07:41.184Z,15.43
2018-11-14T01:10:11.715Z,12.87
2018-11-14T01:12:40.508Z,13.40
2018-11-14T01:15:11.189Z,13.93
2018-11-14T01:17:39.849Z,26.53
2018-11-14T01:20:10.317Z,18.80
2018-11-14T01:22:38.725Z,17.50
2018-11-14T01:25:07.959Z,16.73
2018-11-14T01:27:36.359Z,16.40
2018-11-14T01:30:06.761Z,13.60
2018-11-14T01:32:35.160Z,18.00
2018-11-14T01:35:03.597Z,24.73
2018-11-14T01:37:32.021Z,25.33
2018-11-14T01:40:00.452Z,23.67
2018-11-14T01:42:28.884Z,15.03
2018-11-14T01:45:06.053Z,12.53
2018-11-14T01:47:34.752Z,17.77
2018-11-14T01:50:03.564Z,22.17
2018-11-14T01:52:32.010Z,27.00
2018-11-14T01:55:00.451Z,18.47
2018-11-14T01:57:28.877Z,15.90
2018-11-14T01:59:58.417Z,21.20
2018-11-14T02:02:26.880Z,18.30
2018-11-14T02:04:55.353Z,16.20
2018-11-14T02:07:23.773Z,18.97
2018-11-14T02:09:52.400Z,22.17
2018-11-14T02:12:20.872Z,17.27
2018-11-14T02:14:49.333Z,24.87
2018-11-14T02:17:17.732Z,21.47
2018-11-14T02:19:46.189Z,16.03
2018-11-14T02:22:14.622Z,23.47
2018-11-14T02:24:43.050Z,17.63
2018-11-14T02:27:11.509Z,19.10
2018-11-14T02:29:39.958Z,23.23
2018-11-14T02:32:08.377Z,18.80
2018-11-14T02:34:36.841Z,20.33
2018-11-14T02:37:05.329Z,20.60
2018-11-14T02:39:33.759Z,20.50
2018-11-14T02:42:02.514Z,21.37
2018-11-14T02:44:31.000Z,19.60
2018-11-14T02:46:59.449Z,19.07
2018-11-14T02:49:27.877Z,20.53
2018-11-14T02:51:56.291Z,25.60
2018-11-14T02:54:24.708Z,20.07
2018-11-14T02:56:53.166Z,22.73
2018-11-14T02:59:21.610Z,36.43
2018-11-14T03:01:50.061Z,22.87
2018-11-14T03:04:18.498Z,19.47
2018-11-14T03:06:46.954Z,29.33
2018-11-14T03:09:15.377Z,29.17
2018-11-14T03:11:43.813Z,17.77
2018-11-14T03:14:12.222Z,25.67
2018-11-14T03:16:40.669Z,27.10
2018-11-14T03:19:09.096Z,33.40
2018-11-14T03:21:37.557Z,26.93
2018-11-14T03:24:06.207Z,28.63
2018-11-14T03:26:34.661Z,29.10
2018-11-14T03:29:03.062Z,21.23
2018-11-14T03:31:31.484Z,16.17
2018-11-14T03:33:59.881Z,25.53
2018-11-14T03:36:28.325Z,16.90
2018-11-14T03:38:56.737Z,15.50
2018-11-14T03:41:25.187Z,17.73
2018-11-14T03:43:53.621Z,23.13
2018-11-14T03:46:22.062Z,22.20
2018-11-14T03:48:50.477Z,27.57
2018-11-14T03:51:18.920Z,16.30
2018-11-14T03:53:47.369Z,22.40
2018-11-14T03:56:15.808Z,20.90
2018-11-14T03:58:44.217Z,18.07
2018-11-14T04:01:12.667Z,21.30
2018-11-14T04:03:41.099Z,25.20
2018-11-14T04:06:09.557Z,565.30
2018-11-14T04:08:37.982Z,434.60
2018-11-14T04:11:06.753Z,189.50
2018-11-14T04:13:35.170Z,220.37
2018-11-14T04:16:03.621Z,86.83
2018-11-14T04:18:32.044Z,69.13
2018-11-14T04:21:00.484Z,169.10
2018-11-14T04:23:28.900Z,76.70
2018-11-14T04:25:57.329Z,36.03
2018-11-14T04:28:25.741Z,33.93
2018-11-14T04:30:54.176Z,81.97
2018-11-14T04:33:23.014Z,331.53
2018-11-14T04:35:51.414Z,83.93
2018-11-14T04:38:19.857Z,72.30
2018-11-14T04:40:48.273Z,183.37
2018-11-14T04:43:16.757Z,183.57
2018-11-14T04:45:45.172Z,179.47
2018-11-14T04:48:13.662Z,167.27
2018-11-14T04:50:42.110Z,253.17
2018-11-14T04:53:10.566Z,148.63
2018-11-14T04:55:38.987Z,75.67
2018-11-14T04:58:07.460Z,289.73
2018-11-14T05:00:35.874Z,325.63
2018-11-14T05:03:04.366Z,70.60
2018-11-14T05:05:32.813Z,65.23
2018-11-14T05:08:01.296Z,34.80
2018-11-14T05:10:29.708Z,26.63
2018-11-14T05:12:58.250Z,23.17
2018-11-14T05:15:26.875Z,28.37
2018-11-14T05:17:55.728Z,14.93
2018-11-14T05:20:24.212Z,8.80
2018-11-14T05:22:52.922Z,121.97
2018-11-14T05:25:21.393Z,13.90
2018-11-14T05:27:49.834Z,14.30
2018-11-14T05:30:19.724Z,10.67
2018-11-14T05:32:49.071Z,8.27
2018-11-14T05:35:17.745Z,19.13
2018-11-14T05:37:46.577Z,14.47
2018-11-14T05:40:17.371Z,17.47
2018-11-14T05:42:46.532Z,9.73
2018-11-14T05:45:19.998Z,12.67
2018-11-14T05:47:48.473Z,12.30
2018-11-14T05:50:18.153Z,12.13
2018-11-14T05:52:46.599Z,11.10
2018-11-14T05:55:15.459Z,12.70
2018-11-14T05:57:43.885Z,10.30
2018-11-14T06:00:19.681Z,8.67
2018-11-14T06:02:48.143Z,11.27
2018-11-14T06:05:16.598Z,9.70
2018-11-14T06:07:45.067Z,13.77
2018-11-14T06:10:13.851Z,11.13
2018-11-14T06:12:42.879Z,12.37
2018-11-14T06:15:14.806Z,17.80
2018-11-14T06:17:44.157Z,22.07
2018-11-14T06:20:16.040Z,19.60
2018-11-14T06:22:45.469Z,25.87
2018-11-14T06:25:22.524Z,20.83
2018-11-14T06:27:52.089Z,20.70
2018-11-14T06:30:20.969Z,24.80
2018-11-14T06:32:49.705Z,41.70
2018-11-14T06:35:18.703Z,52.13
2018-11-14T06:37:47.511Z,50.63
2018-11-14T06:40:15.924Z,58.33
2018-11-14T06:42:44.383Z,49.90
2018-11-14T06:45:14.125Z,49.20
2018-11-14T06:47:43.977Z,55.60
2018-11-14T06:50:13.090Z,64.23
2018-11-14T06:52:41.996Z,70.37
2018-11-14T06:55:12.315Z,58.60
2018-11-14T06:57:40.817Z,63.27
2018-11-14T07:00:13.693Z,68.57
2018-11-14T07:02:42.644Z,59.40
2018-11-14T07:05:12.836Z,73.90
2018-11-14T07:07:41.498Z,64.53
2018-11-14T07:10:12.019Z,62.83
2018-11-14T07:12:40.453Z,82.03
2018-11-14T07:15:11.438Z,75.50
2018-11-14T07:17:39.918Z,72.40
2018-11-14T07:20:11.553Z,63.87
2018-11-14T07:22:39.980Z,56.00
2018-11-14T07:25:08.878Z,63.30
2018-11-14T07:27:37.305Z,72.73
2018-11-14T07:30:08.329Z,66.90
2018-11-14T07:32:36.756Z,65.93
2018-11-14T07:35:05.742Z,64.93
2018-11-14T07:37:34.178Z,57.30
2018-11-14T07:40:02.622Z,63.27
2018-11-14T07:42:31.028Z,62.33
2018-11-14T07:44:59.479Z,50.53
2018-11-14T07:47:27.905Z,51.97
2018-11-14T07:49:56.418Z,53.13
2018-11-14T07:52:24.807Z,49.97
2018-11-14T07:54:53.244Z,53.50
2018-11-14T07:57:21.664Z,53.60
2018-11-14T07:59:50.101Z,54.13
2018-11-14T08:02:18.560Z,41.97
2018-11-14T08:04:47.000Z,58.97
2018-11-14T08:07:15.412Z,44.77
2018-11-14T08:09:43.862Z,60.40
2018-11-14T08:12:12.312Z,47.27
2018-11-14T08:14:40.770Z,61.80
2018-11-14T08:17:09.192Z,51.83
2018-11-14T08:19:37.650Z,52.57
2018-11-14T08:22:06.093Z,49.53
2018-11-14T08:24:34.507Z,39.80
2018-11-14T08:27:02.952Z,49.07
2018-11-14T08:29:31.454Z,49.43
2018-11-14T08:31:59.898Z,34.60
2018-11-14T08:34:28.318Z,40.53
2018-11-14T08:36:56.756Z,34.80
2018-11-14T08:39:25.314Z,33.67
2018-11-14T08:41:53.695Z,32.70
2018-11-14T08:44:22.102Z,48.20
2018-11-14T08:46:50.559Z,36.77
2018-11-14T08:49:19.024Z,30.63
2018-11-14T08:51:47.485Z,35.33
2018-11-14T08:54:15.907Z,35.27
2018-11-14T08:56:44.382Z,30.80
2018-11-14T08:59:12.810Z,28.27
2018-11-14T09:01:41.297Z,32.90
2018-11-14T09:04:09.766Z,34.50
2018-11-14T09:06:38.226Z,30.33
2018-11-14T09:09:09.283Z,27.80
2018-11-14T09:11:37.730Z,35.43
2018-11-14T09:14:06.467Z,38.70
2018-11-14T09:16:34.912Z,39.30
2018-11-14T09:19:03.343Z,36.57
2018-11-14T09:21:31.788Z,35.83
2018-11-14T09:24:00.225Z,36.33
2018-11-14T09:26:28.665Z,27.67
2018-11-14T09:28:57.092Z,28.70
2018-11-14T09:31:25.537Z,28.50
2018-11-14T09:33:53.973Z,27.27
2018-11-14T09:36:22.386Z,32.37
2018-11-14T09:38:50.857Z,29.03
2018-11-14T09:41:19.292Z,33.53
2018-11-14T09:43:47.754Z,32.50
2018-11-14T09:46:16.193Z,32.87
2018-11-14T09:48:44.651Z,32.17
2018-11-14T09:51:13.077Z,36.77
2018-11-14T09:53:41.524Z,29.30
2018-11-14T09:56:09.960Z,36.43
2018-11-14T09:58:38.438Z,41.20
2018-11-14T10:01:07.005Z,28.00
2018-11-14T10:03:35.476Z,34.87
2018-11-14T10:06:03.979Z,35.10
2018-11-14T10:08:32.398Z,29.90
2018-11-14T10:11:00.907Z,27.27
2018-11-14T10:13:29.302Z,29.60
2018-11-14T10:15:57.711Z,34.67
2018-11-14T10:18:26.264Z,36.93
2018-11-14T10:20:54.674Z,33.60
2018-11-14T10:23:23.137Z,28.17
2018-11-14T10:25:51.547Z,31.97
2018-11-14T10:28:20.007Z,29.53
2018-11-14T10:30:48.555Z,32.27
2018-11-14T10:33:17.841Z,28.00
2018-11-14T10:35:46.291Z,27.00
2018-11-14T10:38:14.748Z,29.73
2018-11-14T10:40:43.207Z,37.77
2018-11-14T10:43:11.642Z,35.33
2018-11-14T10:45:40.131Z,27.40
2018-11-14T10:48:08.582Z,25.80
2018-11-14T10:50:37.012Z,33.20
2018-11-14T10:53:05.757Z,30.93
2018-11-14T10:55:34.174Z,27.27
2018-11-14T10:58:02.648Z,33.97
2018-11-14T11:00:36.492Z,31.67
2018-11-14T11:03:10.194Z,34.00
2018-11-14T11:05:43.772Z,31.80
2018-11-14T11:08:18.455Z,32.83
2018-11-14T11:10:52.110Z,33.40
2018-11-14T11:13:25.977Z,30.20
2018-11-14T11:15:59.639Z,37.63
2018-11-14T11:18:29.824Z,29.33
2018-11-14T11:20:58.301Z,38.43
2018-11-14T11:23:26.776Z,29.97
2018-11-14T11:25:55.221Z,26.40
2018-11-14T11:28:23.685Z,30.00
2018-11-14T11:30:52.250Z,27.37
2018-11-14T11:33:20.625Z,26.43
2018-11-14T11:35:49.093Z,30.80
2018-11-14T11:38:17.591Z,28.80
2018-11-14T11:40:46.066Z,26.50
2018-11-14T11:43:14.495Z,31.33
2018-11-14T11:45:42.977Z,27.83
2018-11-14T11:48:11.497Z,28.80
2018-11-14T11:50:39.946Z,26.20
2018-11-14T11:53:08.368Z,33.00
2018-11-14T11:55:36.805Z,26.63
2018-11-14T11:58:05.692Z,26.60
2018-11-14T12:00:34.274Z,28.10
2018-11-14T12:03:02.636Z,23.77
2018-11-14T12:05:31.090Z,24.37
2018-11-14T12:07:59.512Z,24.13
2018-11-14T12:10:27.988Z,28.03
2018-11-14T12:12:56.443Z,27.90
2018-11-14T12:15:24.885Z,30.10
2018-11-14T12:17:53.418Z,29.93
2018-11-14T12:20:21.796Z,32.83
2018-11-14T12:22:50.230Z,28.30
2018-11-14T12:25:18.682Z,27.43
2018-11-14T12:27:47.106Z,24.33
2018-11-14T12:30:17.123Z,28.57
2018-11-14T12:32:45.504Z,41.93
2018-11-14T12:35:15.332Z,29.83
2018-11-14T12:37:43.728Z,31.30
2018-11-14T12:40:13.201Z,33.53
2018-11-14T12:42:41.848Z,29.03
2018-11-14T12:45:12.375Z,26.57
2018-11-14T12:47:40.872Z,28.97
2018-11-14T12:50:10.231Z,31.27
2018-11-14T12:52:38.854Z,31.33
2018-11-14T12:55:09.270Z,32.37
2018-11-14T12:57:37.712Z,32.90
2018-11-14T13:00:07.799Z,26.73
2018-11-14T13:02:36.246Z,31.93
2018-11-14T13:05:04.899Z,34.70
2018-11-14T13:07:33.364Z,32.13
2018-11-14T13:10:01.789Z,26.70
2018-11-14T13:12:30.236Z,32.40
2018-11-14T13:14:58.675Z,36.33
2018-11-14T13:17:27.129Z,28.07
2018-11-14T13:19:55.572Z,32.40
2018-11-14T13:22:24.030Z,40.00
2018-11-14T13:24:52.447Z,41.23
2018-11-14T13:27:20.911Z,35.13
2018-11-14T13:29:49.346Z,38.27
2018-11-14T13:32:17.833Z,34.50
2018-11-14T13:34:46.254Z,37.63
2018-11-14T13:37:14.728Z,34.33
2018-11-14T13:39:43.263Z,30.33
2018-11-14T13:42:11.712Z,39.53
2018-11-14T13:44:40.171Z,37.80
2018-11-14T13:47:08.620Z,40.63
2018-11-14T13:49:37.172Z,34.00
2018-11-14T13:52:05.889Z,33.13
2018-11-14T13:54:34.314Z,30.67
2018-11-14T13:57:02.816Z,26.63
2018-11-14T13:59:31.245Z,34.90
2018-11-14T14:01:59.714Z,31.73
2018-11-14T14:04:28.185Z,31.90
2018-11-14T14:06:56.657Z,32.47
2018-11-14T14:09:25.163Z,35.20
2018-11-14T14:11:53.536Z,42.97
2018-11-14T14:14:22.013Z,48.40
2018-11-14T14:16:50.457Z,34.03
2018-11-14T14:19:18.927Z,33.37
2018-11-14T14:21:47.363Z,33.87
2018-11-14T14:24:15.849Z,35.23
2018-11-14T14:26:44.276Z,35.47
2018-11-14T14:29:12.739Z,37.17
2018-11-14T14:31:41.193Z,29.90
2018-11-14T14:34:09.641Z,30.20
2018-11-14T14:36:38.093Z,28.00
2018-11-14T14:39:08.876Z,29.57
2018-11-14T14:41:37.355Z,31.30
2018-11-14T14:44:06.105Z,37.20
2018-11-14T14:46:34.532Z,28.20
2018-11-14T14:49:03.098Z,28.03
2018-11-14T14:51:31.593Z,26.80
2018-11-14T14:54:00.046Z,25.83
2018-11-14T14:56:28.506Z,27.87
2018-11-14T14:59:03.690Z,38.30
2018-11-14T15:01:32.144Z,30.63
2018-11-14T15:04:00.638Z,34.70
2018-11-14T15:06:29.066Z,32.40
2018-11-14T15:08:57.577Z,38.20
2018-11-14T15:11:26.016Z,39.63
2018-11-14T15:13:54.480Z,32.13
2018-11-14T15:16:22.925Z,32.27
2018-11-14T15:18:51.348Z,40.87
2018-11-14T15:21:19.804Z,42.03
2018-11-14T15:23:48.520Z,35.63
2018-11-14T15:26:16.993Z,43.50
2018-11-14T15:28:45.428Z,38.27
2018-11-14T15:31:13.890Z,35.67
2018-11-14T15:33:42.322Z,37.90
2018-11-14T15:36:10.831Z,38.40
2018-11-14T15:38:39.266Z,31.93
2018-11-14T15:41:07.743Z,40.23
2018-11-14T15:43:36.202Z,28.30
2018-11-14T15:46:04.693Z,40.27
2018-11-14T15:48:33.108Z,32.17
2018-11-14T15:51:01.580Z,36.63
2018-11-14T15:53:29.990Z,36.30
2018-11-14T15:55:58.456Z,38.13
2018-11-14T15:58:26.874Z,33.77
2018-11-14T16:00:55.337Z,38.53
2018-11-14T16:03:23.774Z,38.13
2018-11-14T16:05:52.241Z,37.10
2018-11-14T16:08:20.652Z,44.40
2018-11-14T16:10:49.109Z,40.80
2018-11-14T16:13:17.530Z,41.60
2018-11-14T16:15:45.990Z,38.30
2018-11-14T16:18:14.436Z,36.37
2018-11-14T16:20:42.885Z,35.77
2018-11-14T16:23:11.307Z,46.37
2018-11-14T16:25:39.760Z,39.93
2018-11-14T16:28:08.227Z,34.47
2018-11-14T16:30:37.534Z,30.33
2018-11-14T16:33:07.270Z,36.57
2018-11-14T16:35:35.776Z,37.40
2018-11-14T16:38:04.292Z,29.13
2018-11-14T16:40:33.902Z,27.37
2018-11-14T16:43:03.844Z,36.10
2018-11-14T16:45:32.290Z,35.07
2018-11-14T16:48:00.729Z,33.43
2018-11-14T16:50:29.184Z,29.00
2018-11-14T16:52:57.626Z,33.53
2018-11-14T16:55:26.084Z,37.33
2018-11-14T16:57:55.559Z,38.97
2018-11-14T17:00:27.243Z,41.07
2018-11-14T17:02:55.749Z,41.03
2018-11-14T17:05:25.176Z,86.03
2018-11-14T17:07:53.855Z,94.10
2018-11-14T17:10:22.889Z,48.13
2018-11-14T17:12:52.681Z,37.47
2018-11-14T17:15:22.443Z,35.67
2018-11-14T17:17:50.896Z,40.07
2018-11-14T17:20:20.168Z,30.80
2018-11-14T17:22:49.255Z,40.87
2018-11-14T17:25:18.298Z,33.70
2018-11-14T17:27:47.180Z,34.33
2018-11-14T17:30:18.206Z,30.83
2018-11-14T17:32:46.704Z,39.00
2018-11-14T17:35:15.874Z,41.37
2018-11-14T17:37:44.784Z,35.97
2018-11-14T17:40:16.492Z,31.83
2018-11-14T17:42:45.763Z,33.73
2018-11-14T17:45:15.879Z,33.40
2018-11-14T17:47:44.425Z,34.17
2018-11-14T17:50:16.472Z,35.07
2018-11-14T17:52:45.304Z,34.13
2018-11-14T17:55:14.703Z,36.27
2018-11-14T17:57:43.191Z,48.83
2018-11-14T18:00:13.372Z,30.43
2018-11-14T18:02:42.698Z,26.93
2018-11-14T18:05:15.672Z,33.13
2018-11-14T18:07:44.878Z,31.83
2018-11-14T18:10:14.588Z,32.90
2018-11-14T18:12:43.629Z,31.60
2018-11-14T18:15:12.630Z,30.73
2018-11-14T18:17:41.663Z,34.57
2018-11-14T18:20:27.593Z,34.13
2018-11-14T18:22:56.362Z,41.83
2018-11-14T18:25:24.799Z,45.57
2018-11-14T18:27:53.254Z,35.70
2018-11-14T18:30:25.752Z,34.90
2018-11-14T18:32:55.172Z,28.63
2018-11-14T18:35:24.152Z,39.43
2018-11-14T18:37:53.392Z,37.30
2018-11-14T18:40:23.128Z,34.70
2018-11-14T18:42:51.578Z,46.73
2018-11-14T18:45:22.517Z,37.30
2018-11-14T18:47:51.026Z,37.30
2018-11-14T18:50:20.274Z,31.50
2018-11-14T18:52:49.213Z,33.87
2018-11-14T18:55:18.705Z,33.10
2018-11-14T18:57:47.520Z,28.23
2018-11-14T19:00:18.991Z,39.00
2018-11-14T19:02:47.456Z,30.77
2018-11-14T19:05:16.507Z,32.40
2018-11-14T19:07:45.013Z,38.87
2018-11-14T19:10:14.878Z,40.83
2018-11-14T19:12:43.880Z,31.20
2018-11-14T19:15:15.705Z,28.17
2018-11-14T19:17:44.139Z,32.57
2018-11-14T19:20:17.212Z,34.33
2018-11-14T19:22:46.055Z,31.07
2018-11-14T19:25:16.776Z,27.70
2018-11-14T19:27:45.913Z,27.07
2018-11-14T19:30:18.690Z,28.57
2018-11-14T19:32:48.226Z,30.77
2018-11-14T19:35:16.919Z,34.17
2018-11-14T19:37:46.581Z,32.13
2018-11-14T19:40:19.329Z,37.73
2018-11-14T19:42:48.692Z,29.30
2018-11-14T19:45:18.973Z,29.80
2018-11-14T19:47:47.397Z,28.10
2018-11-14T19:50:16.952Z,31.53
2018-11-14T19:52:45.828Z,34.33
2018-11-14T19:55:15.618Z,28.60
2018-11-14T19:57:44.976Z,29.03
2018-11-14T20:00:16.823Z,31.23
2018-11-14T20:02:45.242Z,29.30
2018-11-14T20:05:14.808Z,25.30
2018-11-14T20:07:43.223Z,32.63
2018-11-14T20:10:18.885Z,28.27
2018-11-14T20:12:47.842Z,32.53
2018-11-14T20:15:17.698Z,25.33
2018-11-14T20:17:46.817Z,38.93
2018-11-14T20:20:16.783Z,24.77
2018-11-14T20:22:45.636Z,26.63
2018-11-14T20:25:14.133Z,30.17
2018-11-14T20:27:42.839Z,27.53
2018-11-14T20:30:12.843Z,16.73
2018-11-14T20:32:41.351Z,22.13
2018-11-14T20:35:11.128Z,32.60
2018-11-14T20:37:39.916Z,30.80
2018-11-14T20:40:09.876Z,27.60
2018-11-14T20:42:38.701Z,40.63
2018-11-14T20:45:09.323Z,29.23
2018-11-14T20:47:37.749Z,26.50
2018-11-14T20:50:08.850Z,24.17
2018-11-14T20:52:37.340Z,22.47
2018-11-14T20:55:07.735Z,23.20
2018-11-14T20:57:36.533Z,26.10
2018-11-14T21:00:06.106Z,26.70
2018-11-14T21:02:34.527Z,24.03
2018-11-14T21:05:03.032Z,26.97
2018-11-14T21:07:31.470Z,27.97
2018-11-14T21:09:59.910Z,23.30
2018-11-14T21:12:28.391Z,30.30
2018-11-14T21:14:56.791Z,22.30
2018-11-14T21:17:25.227Z,18.60
2018-11-14T21:19:53.664Z,15.23
2018-11-14T21:22:22.092Z,16.47
2018-11-14T21:24:50.530Z,23.60
2018-11-14T21:27:18.971Z,26.53
2018-11-14T21:29:47.437Z,28.97
2018-11-14T21:32:15.847Z,28.70
2018-11-14T21:34:44.244Z,26.73
2018-11-14T21:37:12.688Z,21.17
2018-11-14T21:39:41.117Z,22.30
2018-11-14T21:42:09.557Z,23.43
2018-11-14T21:44:37.979Z,20.03
2018-11-14T21:47:06.426Z,17.53
2018-11-14T21:49:34.840Z,14.10
2018-11-14T21:52:03.293Z,15.43
2018-11-14T21:54:31.706Z,18.37
2018-11-14T21:57:00.150Z,10.77
2018-11-14T21:59:28.560Z,10.13
2018-11-14T22:01:56.984Z,34.93
2018-11-14T22:04:25.417Z,82.00
2018-11-14T22:06:53.850Z,16.80
2018-11-14T22:09:22.263Z,11.90
2018-11-14T22:11:50.718Z,7.37
2018-11-14T22:14:19.125Z,60.07
2018-11-14T22:16:47.540Z,542.87
2018-11-14T22:19:16.004Z,416.23
2018-11-14T22:21:44.437Z,441.50
2018-11-14T22:24:12.893Z,255.50
2018-11-14T22:26:41.310Z,264.40
2018-11-14T22:29:09.753Z,208.90
2018-11-14T22:31:38.183Z,30.33
2018-11-14T22:34:07.057Z,42.13
2018-11-14T22:36:35.480Z,57.13
2018-11-14T22:39:04.653Z,17.57
2018-11-14T22:41:33.060Z,29.57
2018-11-14T22:44:01.495Z,33.93
2018-11-14T22:46:29.894Z,25.07
2018-11-14T22:48:58.352Z,15.77
2018-11-14T22:51:26.777Z,10.43
2018-11-14T22:53:55.224Z,10.40
2018-11-14T22:56:23.649Z,10.43
2018-11-14T22:58:52.127Z,8.97
2018-11-14T23:01:20.566Z,10.47
2018-11-14T23:03:49.033Z,32.63
2018-11-14T23:06:17.448Z,44.13
2018-11-14T23:08:45.887Z,49.10
2018-11-14T23:11:14.295Z,9.63
2018-11-14T23:13:42.732Z,9.07
2018-11-14T23:16:11.159Z,23.73
2018-11-14T23:18:39.593Z,79.50
2018-11-14T23:21:08.030Z,287.50
2018-11-14T23:23:36.465Z,87.83
2018-11-14T23:26:04.892Z,70.07
2018-11-14T23:28:33.331Z,71.17
2018-11-14T23:31:01.748Z,8.10
2018-11-14T23:33:30.220Z,20.37
2018-11-14T23:35:58.641Z,43.97
2018-11-14T23:38:27.080Z,21.73
2018-11-14T23:40:55.522Z,392.80
2018-11-14T23:43:23.950Z,414.40
2018-11-14T23:45:52.370Z,38.33
2018-11-14T23:48:20.805Z,135.50
2018-11-14T23:50:49.254Z,331.47
2018-11-14T23:53:17.690Z,291.47
2018-11-14T23:55:46.149Z,196.93
2018-11-14T23:58:14.600Z,186.47
